Terminal Aerodrome Forecast
Issued by NWS

Home | Current Version | Previous Version | Graphics & Text | Print | Product List | Glossary On
Versions: 1 2 3 4 5 6 7 8 9 10 11 12 13 14 15 16 17
000
FTUS43 KBIS 151400 AAA
TAFDIK
TAF AMD
KDIK 151426Z 1514/1612 34017G25KT P6SM VCSH OVC004
      TEMPO 1514/1517 -FZDZSN OVC008
     FM151800 34015KT P6SM OVC010
     FM160000 33008KT P6SM OVC010=

USA.gov is the U.S. government's official web portal to all federal, state and local government web resources and services.